PWSweather.com
Personal Weather Stations
Station Observations
SELSTON
Bracken House, Selston NottinghamGB NG16 6AN

Bracken HouseSelston NottinghamGB NG16 6AN

Lat: 53.070642, Lon: -1.2933

Elevation: 426

Station Type: Davis Vantage Pro 2

http://www.selstonweather.info

Latest ConditionsUpdated 11:51:34 AM GMT Friday, Apr 19, 2019
Currently Today's Max Today's Min Today's Average
Temperature 64.8°F18.2°C 64.8°F18.2°C 44.2°F6.8°C 49.5°F9.7°C
Dew Point 49.7°F9.8°C 50.3°F10.2°C 41.5°F5.3°C 44.4°F6.9°C
Winds 5.0 mph E8.0 kmh E 8.0 mph -12.9 kmh - - 3.0 mph 4.8 kmh
Wind Gusts 10.0 mph16.1 kmh 11.0 mph17.7 kmh - -
Humidity 58% 91% 57% 84%
Pressure 30.41 in1029.8 mb 30.41 in1029.8 mb 30.34 in1027.4 mb -
Hour Temp Dew Point Humidity Winds Wind Gusts Pressure Precip Precip Rate Daily Precip Total
11:51 AM 64.8°F18.2°C 49.7°F9.8°C 58% 5.0 mph E8.0 kmh E 10.0 mph16.1 kmh 30.41 in1029.8 mb 0.00 in0.0 mm 0.00 in0.0 mm 0.00 in0.0 mm
11:46 AM 64.6°F18.1°C 49.0°F9.4°C 57% 2.0 mph NE3.2 kmh NE 10.0 mph16.1 kmh 30.41 in1029.8 mb 0.00 in0.0 mm 0.00 in0.0 mm 0.00 in0.0 mm
11:41 AM 64.3°F17.9°C 49.7°F9.8°C 59% 5.0 mph NE8.0 kmh NE 8.0 mph12.9 kmh 30.41 in1029.8 mb 0.00 in0.0 mm 0.00 in0.0 mm 0.00 in0.0 mm
11:36 AM 64.0°F17.8°C 49.4°F9.7°C 59% 6.0 mph E9.7 kmh E 8.0 mph12.9 kmh 30.41 in1029.8 mb 0.00 in0.0 mm 0.00 in0.0 mm 0.00 in0.0 mm
11:31 AM 63.6°F17.6°C 49.5°F9.7°C 60% 2.0 mph NE3.2 kmh NE 8.0 mph12.9 kmh 30.41 in1029.8 mb 0.00 in0.0 mm 0.00 in0.0 mm 0.00 in0.0 mm
11:26 AM 63.1°F17.3°C 50.3°F10.2°C 63% 2.0 mph NE3.2 kmh NE 8.0 mph12.9 kmh 30.41 in1029.8 mb 0.00 in0.0 mm 0.00 in0.0 mm 0.00 in0.0 mm
11:21 AM 62.8°F17.1°C 49.6°F9.8°C 62% 2.0 mph NNE3.2 kmh NNE 7.0 mph11.3 kmh 30.41 in1029.8 mb 0.00 in0.0 mm 0.00 in0.0 mm 0.00 in0.0 mm
11:16 AM 62.7°F17.1°C 49.9°F9.9°C 63% 5.0 mph NE8.0 kmh NE 8.0 mph12.9 kmh 30.41 in1029.8 mb 0.00 in0.0 mm 0.00 in0.0 mm 0.00 in0.0 mm
11:11 AM 62.5°F16.9°C 49.3°F9.6°C 62% 2.0 mph ENE3.2 kmh ENE 8.0 mph12.9 kmh 30.41 in1029.8 mb 0.00 in0.0 mm 0.00 in0.0 mm 0.00 in0.0 mm
11:06 AM 62.1°F16.7°C 48.9°F9.4°C 62% 6.0 mph NE9.7 kmh NE 8.0 mph12.9 kmh 30.41 in1029.8 mb 0.00 in0.0 mm 0.00 in0.0 mm 0.00 in0.0 mm
11:01 AM 61.8°F16.6°C 49.1°F9.5°C 63% 5.0 mph E8.0 kmh E 8.0 mph12.9 kmh 30.41 in1029.8 mb 0.00 in0.0 mm 0.00 in0.0 mm 0.00 in0.0 mm
10:56 AM 61.6°F16.4°C 49.3°F9.6°C 64% 3.0 mph NNE4.8 kmh NNE 8.0 mph12.9 kmh 30.41 in1029.8 mb 0.00 in0.0 mm 0.00 in0.0 mm 0.00 in0.0 mm
10:51 AM 61.4°F16.3°C 49.1°F9.5°C 64% 1.0 mph NE1.6 kmh NE 8.0 mph12.9 kmh 30.41 in1029.8 mb 0.00 in0.0 mm 0.00 in0.0 mm 0.00 in0.0 mm
10:46 AM 61.4°F16.3°C 49.1°F9.5°C 64% 7.0 mph NE11.3 kmh NE 8.0 mph12.9 kmh 30.41 in1029.8 mb 0.00 in0.0 mm 0.00 in0.0 mm 0.00 in0.0 mm
10:41 AM 61.4°F16.3°C 48.7°F9.3°C 63% 1.0 mph NE1.6 kmh NE 8.0 mph12.9 kmh 30.41 in1029.8 mb 0.00 in0.0 mm 0.00 in0.0 mm 0.00 in0.0 mm
10:36 AM 61.0°F16.1°C 48.7°F9.3°C 64% 5.0 mph ENE8.0 kmh ENE 7.0 mph11.3 kmh 30.41 in1029.8 mb 0.00 in0.0 mm 0.00 in0.0 mm 0.00 in0.0 mm
10:31 AM 60.5°F15.8°C 48.7°F9.3°C 65% 2.0 mph E3.2 kmh E 7.0 mph11.3 kmh 30.41 in1029.8 mb 0.00 in0.0 mm 0.00 in0.0 mm 0.00 in0.0 mm
10:26 AM 60.2°F15.7°C 48.8°F9.3°C 66% Calm Calm 7.0 mph11.3 kmh 30.41 in1029.8 mb 0.00 in0.0 mm 0.00 in0.0 mm 0.00 in0.0 mm
10:21 AM 59.9°F15.5°C 49.3°F9.6°C 68% 2.0 mph NE3.2 kmh NE 8.0 mph12.9 kmh 30.41 in1029.8 mb 0.00 in0.0 mm 0.00 in0.0 mm 0.00 in0.0 mm
10:16 AM 59.5°F15.3°C 48.5°F9.2°C 67% 2.0 mph NE3.2 kmh NE 8.0 mph12.9 kmh 30.41 in1029.8 mb 0.00 in0.0 mm 0.00 in0.0 mm 0.00 in0.0 mm
10:11 AM 59.2°F15.1°C 49.0°F9.4°C 69% 5.0 mph NE8.0 kmh NE 8.0 mph12.9 kmh 30.41 in1029.8 mb 0.00 in0.0 mm 0.00 in0.0 mm 0.00 in0.0 mm
10:06 AM 58.8°F14.9°C 48.6°F9.2°C 69% 3.0 mph NNE4.8 kmh NNE 8.0 mph12.9 kmh 30.41 in1029.8 mb 0.00 in0.0 mm 0.00 in0.0 mm 0.00 in0.0 mm
10:01 AM 58.7°F14.8°C 48.9°F9.4°C 70% 4.0 mph E6.4 kmh E 8.0 mph12.9 kmh 30.41 in1029.8 mb 0.00 in0.0 mm 0.00 in0.0 mm 0.00 in0.0 mm
09:56 AM 58.3°F14.6°C 48.6°F9.2°C 70% 3.0 mph NE4.8 kmh NE 8.0 mph12.9 kmh 30.41 in1029.8 mb 0.00 in0.0 mm 0.00 in0.0 mm 0.00 in0.0 mm
09:51 AM 58.0°F14.4°C 48.3°F9.1°C 70% 3.0 mph NNE4.8 kmh NNE 9.0 mph14.5 kmh 30.41 in1029.8 mb 0.00 in0.0 mm 0.00 in0.0 mm 0.00 in0.0 mm
09:46 AM 57.8°F14.3°C 48.5°F9.2°C 71% 6.0 mph E9.7 kmh E 9.0 mph14.5 kmh 30.41 in1029.8 mb 0.00 in0.0 mm 0.00 in0.0 mm 0.00 in0.0 mm
09:41 AM 57.3°F14.1°C 49.1°F9.5°C 74% 2.0 mph NE3.2 kmh NE 9.0 mph14.5 kmh 30.41 in1029.8 mb 0.00 in0.0 mm 0.00 in0.0 mm 0.00 in0.0 mm
09:36 AM 56.9°F13.8°C 49.1°F9.5°C 75% 3.0 mph NE4.8 kmh NE 9.0 mph14.5 kmh 30.41 in1029.8 mb 0.00 in0.0 mm 0.00 in0.0 mm 0.00 in0.0 mm
09:31 AM 56.7°F13.7°C 48.5°F9.2°C 74% 4.0 mph NE6.4 kmh NE 7.0 mph11.3 kmh 30.41 in1029.8 mb 0.00 in0.0 mm 0.00 in0.0 mm 0.00 in0.0 mm
09:26 AM 56.5°F13.6°C 48.7°F9.3°C 75% 6.0 mph ENE9.7 kmh ENE 7.0 mph11.3 kmh 30.41 in1029.8 mb 0.00 in0.0 mm 0.00 in0.0 mm 0.00 in0.0 mm
09:21 AM 56.1°F13.4°C 48.6°F9.2°C 76% 3.0 mph NE4.8 kmh NE 6.0 mph9.7 kmh 30.41 in1029.8 mb 0.00 in0.0 mm 0.00 in0.0 mm 0.00 in0.0 mm
09:16 AM 55.5°F13.1°C 48.4°F9.1°C 77% 3.0 mph ENE4.8 kmh ENE 9.0 mph14.5 kmh 30.41 in1029.8 mb 0.00 in0.0 mm 0.00 in0.0 mm 0.00 in0.0 mm
09:11 AM 54.9°F12.7°C 48.2°F9.0°C 78% 4.0 mph NE6.4 kmh NE 9.0 mph14.5 kmh 30.41 in1029.8 mb 0.00 in0.0 mm 0.00 in0.0 mm 0.00 in0.0 mm
09:06 AM 54.5°F12.5°C 48.1°F8.9°C 79% 3.0 mph NNE4.8 kmh NNE 9.0 mph14.5 kmh 30.41 in1029.8 mb 0.00 in0.0 mm 0.00 in0.0 mm 0.00 in0.0 mm
09:01 AM 54.3°F12.4°C 47.6°F8.7°C 78% 3.0 mph NE4.8 kmh NE 9.0 mph14.5 kmh 30.41 in1029.8 mb 0.00 in0.0 mm 0.00 in0.0 mm 0.00 in0.0 mm
08:56 AM 54.1°F12.3°C 47.7°F8.7°C 79% 2.0 mph NE3.2 kmh NE 7.0 mph11.3 kmh 30.41 in1029.8 mb 0.00 in0.0 mm 0.00 in0.0 mm 0.00 in0.0 mm
08:51 AM 53.7°F12.1°C 47.7°F8.7°C 80% 3.0 mph NNE4.8 kmh NNE 7.0 mph11.3 kmh 30.41 in1029.8 mb 0.00 in0.0 mm 0.00 in0.0 mm 0.00 in0.0 mm
08:46 AM 53.3°F11.8°C 47.6°F8.7°C 81% 3.0 mph NE4.8 kmh NE 11.0 mph17.7 kmh 30.41 in1029.8 mb 0.00 in0.0 mm 0.00 in0.0 mm 0.00 in0.0 mm
08:41 AM 52.6°F11.4°C 47.3°F8.5°C 82% 3.0 mph NE4.8 kmh NE 11.0 mph17.7 kmh 30.41 in1029.8 mb 0.00 in0.0 mm 0.00 in0.0 mm 0.00 in0.0 mm
08:36 AM 52.1°F11.2°C 46.8°F8.2°C 82% 3.0 mph NE4.8 kmh NE 11.0 mph17.7 kmh 30.41 in1029.8 mb 0.00 in0.0 mm 0.00 in0.0 mm 0.00 in0.0 mm
08:31 AM 51.9°F11.1°C 46.6°F8.1°C 82% 3.0 mph NE4.8 kmh NE 11.0 mph17.7 kmh 30.41 in1029.8 mb 0.00 in0.0 mm 0.00 in0.0 mm 0.00 in0.0 mm
08:26 AM 51.9°F11.1°C 46.6°F8.1°C 82% 6.0 mph NNE9.7 kmh NNE 10.0 mph16.1 kmh 30.41 in1029.8 mb 0.00 in0.0 mm 0.00 in0.0 mm 0.00 in0.0 mm
08:21 AM 51.5°F10.8°C 46.8°F8.2°C 84% 3.0 mph NE4.8 kmh NE 10.0 mph16.1 kmh 30.40 in1029.5 mb 0.00 in0.0 mm 0.00 in0.0 mm 0.00 in0.0 mm
08:16 AM 51.0°F10.6°C 46.3°F7.9°C 84% 2.0 mph ENE3.2 kmh ENE 10.0 mph16.1 kmh 30.40 in1029.5 mb 0.00 in0.0 mm 0.00 in0.0 mm 0.00 in0.0 mm
08:11 AM 50.6°F10.3°C 46.3°F7.9°C 85% 4.0 mph NE6.4 kmh NE 10.0 mph16.1 kmh 30.40 in1029.5 mb 0.00 in0.0 mm 0.00 in0.0 mm 0.00 in0.0 mm
08:06 AM 50.1°F10.1°C 46.1°F7.8°C 86% 2.0 mph NNE3.2 kmh NNE 10.0 mph16.1 kmh 30.40 in1029.5 mb 0.00 in0.0 mm 0.00 in0.0 mm 0.00 in0.0 mm
08:01 AM 49.7°F9.8°C 45.7°F7.6°C 86% 5.0 mph NNE8.0 kmh NNE 9.0 mph14.5 kmh 30.40 in1029.5 mb 0.00 in0.0 mm 0.00 in0.0 mm 0.00 in0.0 mm
07:56 AM 49.2°F9.6°C 45.2°F7.3°C 86% 5.0 mph NE8.0 kmh NE 9.0 mph14.5 kmh 30.40 in1029.5 mb 0.00 in0.0 mm 0.00 in0.0 mm 0.00 in0.0 mm
07:51 AM 48.8°F9.3°C 45.1°F7.3°C 87% 3.0 mph NE4.8 kmh NE 10.0 mph16.1 kmh 30.40 in1029.5 mb 0.00 in0.0 mm 0.00 in0.0 mm 0.00 in0.0 mm
07:46 AM 48.5°F9.2°C 44.8°F7.1°C 87% 2.0 mph NNE3.2 kmh NNE 10.0 mph16.1 kmh 30.40 in1029.5 mb 0.00 in0.0 mm 0.00 in0.0 mm 0.00 in0.0 mm
07:41 AM 48.2°F9.0°C 44.5°F6.9°C 87% 7.0 mph 11.3 kmh 10.0 mph16.1 kmh 30.40 in1029.5 mb 0.00 in0.0 mm 0.00 in0.0 mm 0.00 in0.0 mm
07:36 AM 48.0°F8.9°C 44.6°F7.0°C 88% 7.0 mph NE11.3 kmh NE 10.0 mph16.1 kmh 30.40 in1029.5 mb 0.00 in0.0 mm 0.00 in0.0 mm 0.00 in0.0 mm
07:31 AM 47.6°F8.7°C 44.2°F6.8°C 88% 3.0 mph N4.8 kmh N 9.0 mph14.5 kmh 30.40 in1029.5 mb 0.00 in0.0 mm 0.00 in0.0 mm 0.00 in0.0 mm
07:26 AM 47.2°F8.4°C 44.1°F6.7°C 89% 8.0 mph NE12.9 kmh NE 9.0 mph14.5 kmh 30.40 in1029.5 mb 0.00 in0.0 mm 0.00 in0.0 mm 0.00 in0.0 mm
07:21 AM 46.8°F8.2°C 43.7°F6.5°C 89% 3.0 mph NE4.8 kmh NE 9.0 mph14.5 kmh 30.40 in1029.5 mb 0.00 in0.0 mm 0.00 in0.0 mm 0.00 in0.0 mm
07:16 AM 46.4°F8.0°C 43.3°F6.3°C 89% 3.0 mph NNE4.8 kmh NNE 9.0 mph14.5 kmh 30.40 in1029.5 mb 0.00 in0.0 mm 0.00 in0.0 mm 0.00 in0.0 mm
07:11 AM 46.0°F7.8°C 43.2°F6.2°C 90% 1.0 mph NE1.6 kmh NE 8.0 mph12.9 kmh 30.40 in1029.5 mb 0.00 in0.0 mm 0.00 in0.0 mm 0.00 in0.0 mm
07:06 AM 45.7°F7.6°C 42.9°F6.1°C 90% 2.0 mph NE3.2 kmh NE 8.0 mph12.9 kmh 30.40 in1029.5 mb 0.00 in0.0 mm 0.00 in0.0 mm 0.00 in0.0 mm
07:01 AM 45.4°F7.4°C 42.6°F5.9°C 90% 3.0 mph NE4.8 kmh NE 9.0 mph14.5 kmh 30.40 in1029.5 mb 0.00 in0.0 mm 0.00 in0.0 mm 0.00 in0.0 mm
06:56 AM 45.1°F7.3°C 42.6°F5.9°C 91% 4.0 mph N6.4 kmh N 9.0 mph14.5 kmh 30.40 in1029.5 mb 0.00 in0.0 mm 0.00 in0.0 mm 0.00 in0.0 mm
06:51 AM 44.8°F7.1°C 42.0°F5.6°C 90% 6.0 mph NE9.7 kmh NE 9.0 mph14.5 kmh 30.39 in1029.1 mb 0.00 in0.0 mm 0.00 in0.0 mm 0.00 in0.0 mm
06:46 AM 44.5°F6.9°C 41.8°F5.4°C 90% 4.0 mph NE6.4 kmh NE 9.0 mph14.5 kmh 30.39 in1029.1 mb 0.00 in0.0 mm 0.00 in0.0 mm 0.00 in0.0 mm
06:41 AM 44.3°F6.8°C 41.6°F5.3°C 90% 4.0 mph NE6.4 kmh NE 6.0 mph9.7 kmh 30.39 in1029.1 mb 0.00 in0.0 mm 0.00 in0.0 mm 0.00 in0.0 mm
06:36 AM 44.3°F6.8°C 41.6°F5.3°C 90% 3.0 mph NE4.8 kmh NE 7.0 mph11.3 kmh 30.39 in1029.1 mb 0.00 in0.0 mm 0.00 in0.0 mm 0.00 in0.0 mm
06:31 AM 44.2°F6.8°C 41.5°F5.3°C 90% 3.0 mph NE4.8 kmh NE 7.0 mph11.3 kmh 30.39 in1029.1 mb 0.00 in0.0 mm 0.00 in0.0 mm 0.00 in0.0 mm
06:26 AM 44.2°F6.8°C 41.5°F5.3°C 90% 7.0 mph NE11.3 kmh NE 8.0 mph12.9 kmh 30.39 in1029.1 mb 0.00 in0.0 mm 0.00 in0.0 mm 0.00 in0.0 mm
06:21 AM 44.2°F6.8°C 41.5°F5.3°C 90% 4.0 mph NE6.4 kmh NE 8.0 mph12.9 kmh 30.39 in1029.1 mb 0.00 in0.0 mm 0.00 in0.0 mm 0.00 in0.0 mm
06:16 AM 44.3°F6.8°C 41.6°F5.3°C 90% 3.0 mph 4.8 kmh 8.0 mph12.9 kmh 30.39 in1029.1 mb 0.00 in0.0 mm 0.00 in0.0 mm 0.00 in0.0 mm
06:11 AM 44.3°F6.8°C 41.6°F5.3°C 90% 4.0 mph NE6.4 kmh NE 8.0 mph12.9 kmh 30.39 in1029.1 mb 0.00 in0.0 mm 0.00 in0.0 mm 0.00 in0.0 mm
06:06 AM 44.3°F6.8°C 41.6°F5.3°C 90% 2.0 mph NNE3.2 kmh NNE 6.0 mph9.7 kmh 30.39 in1029.1 mb 0.00 in0.0 mm 0.00 in0.0 mm 0.00 in0.0 mm
06:01 AM 44.4°F6.9°C 41.7°F5.4°C 90% 3.0 mph NNE4.8 kmh NNE 6.0 mph9.7 kmh 30.39 in1029.1 mb 0.00 in0.0 mm 0.00 in0.0 mm 0.00 in0.0 mm
05:56 AM 44.4°F6.9°C 41.7°F5.4°C 90% 1.0 mph NE1.6 kmh NE 3.0 mph4.8 kmh 30.39 in1029.1 mb 0.00 in0.0 mm 0.00 in0.0 mm 0.00 in0.0 mm
05:51 AM 44.4°F6.9°C 41.7°F5.4°C 90% 3.0 mph NE4.8 kmh NE 6.0 mph9.7 kmh 30.38 in1028.8 mb 0.00 in0.0 mm 0.00 in0.0 mm 0.00 in0.0 mm
05:46 AM 44.5°F6.9°C 41.8°F5.4°C 90% 2.0 mph NE3.2 kmh NE 6.0 mph9.7 kmh 30.38 in1028.8 mb 0.00 in0.0 mm 0.00 in0.0 mm 0.00 in0.0 mm
05:41 AM 44.5°F6.9°C 41.8°F5.4°C 90% Calm Calm 6.0 mph9.7 kmh 30.38 in1028.8 mb 0.00 in0.0 mm 0.00 in0.0 mm 0.00 in0.0 mm
05:36 AM 44.5°F6.9°C 41.8°F5.4°C 90% 2.0 mph NNE3.2 kmh NNE 7.0 mph11.3 kmh 30.38 in1028.8 mb 0.00 in0.0 mm 0.00 in0.0 mm 0.00 in0.0 mm
05:31 AM 44.6°F7.0°C 41.9°F5.5°C 90% 4.0 mph N6.4 kmh N 7.0 mph11.3 kmh 30.37 in1028.4 mb 0.00 in0.0 mm 0.00 in0.0 mm 0.00 in0.0 mm
05:26 AM 44.6°F7.0°C 41.9°F5.5°C 90% 3.0 mph NE4.8 kmh NE 7.0 mph11.3 kmh 30.37 in1028.4 mb 0.00 in0.0 mm 0.00 in0.0 mm 0.00 in0.0 mm
05:21 AM 44.6°F7.0°C 41.9°F5.5°C 90% 2.0 mph NNE3.2 kmh NNE 7.0 mph11.3 kmh 30.37 in1028.4 mb 0.00 in0.0 mm 0.00 in0.0 mm 0.00 in0.0 mm
05:16 AM 44.6°F7.0°C 41.9°F5.5°C 90% 5.0 mph NNE8.0 kmh NNE 6.0 mph9.7 kmh 30.37 in1028.4 mb 0.00 in0.0 mm 0.00 in0.0 mm 0.00 in0.0 mm
05:11 AM 44.7°F7.1°C 41.9°F5.5°C 90% Calm Calm 8.0 mph12.9 kmh 30.37 in1028.4 mb 0.00 in0.0 mm 0.00 in0.0 mm 0.00 in0.0 mm
05:06 AM 44.7°F7.1°C 41.9°F5.5°C 90% 3.0 mph NNE4.8 kmh NNE 8.0 mph12.9 kmh 30.37 in1028.4 mb 0.00 in0.0 mm 0.00 in0.0 mm 0.00 in0.0 mm
05:01 AM 44.7°F7.1°C 41.9°F5.5°C 90% 3.0 mph N4.8 kmh N 8.0 mph12.9 kmh 30.37 in1028.4 mb 0.00 in0.0 mm 0.00 in0.0 mm 0.00 in0.0 mm
04:56 AM 44.8°F7.1°C 42.0°F5.6°C 90% 6.0 mph NE9.7 kmh NE 8.0 mph12.9 kmh 30.36 in1028.1 mb 0.00 in0.0 mm 0.00 in0.0 mm 0.00 in0.0 mm
04:51 AM 44.9°F7.2°C 42.1°F5.6°C 90% 2.0 mph NE3.2 kmh NE 10.0 mph16.1 kmh 30.36 in1028.1 mb 0.00 in0.0 mm 0.00 in0.0 mm 0.00 in0.0 mm
04:46 AM 44.9°F7.2°C 42.1°F5.6°C 90% 1.0 mph NE1.6 kmh NE 10.0 mph16.1 kmh 30.36 in1028.1 mb 0.00 in0.0 mm 0.00 in0.0 mm 0.00 in0.0 mm
04:41 AM 44.9°F7.2°C 42.1°F5.6°C 90% Calm Calm 10.0 mph16.1 kmh 30.36 in1028.1 mb 0.00 in0.0 mm 0.00 in0.0 mm 0.00 in0.0 mm
04:36 AM 44.9°F7.2°C 42.1°F5.6°C 90% 3.0 mph NE4.8 kmh NE 10.0 mph16.1 kmh 30.36 in1028.1 mb 0.00 in0.0 mm 0.00 in0.0 mm 0.00 in0.0 mm
04:31 AM 44.8°F7.1°C 42.0°F5.6°C 90% 6.0 mph ENE9.7 kmh ENE 7.0 mph11.3 kmh 30.36 in1028.1 mb 0.00 in0.0 mm 0.00 in0.0 mm 0.00 in0.0 mm
04:26 AM 44.9°F7.2°C 42.1°F5.6°C 90% 2.0 mph NE3.2 kmh NE 7.0 mph11.3 kmh 30.36 in1028.1 mb 0.00 in0.0 mm 0.00 in0.0 mm 0.00 in0.0 mm
04:21 AM 44.9°F7.2°C 42.1°F5.6°C 90% 2.0 mph ENE3.2 kmh ENE 7.0 mph11.3 kmh 30.36 in1028.1 mb 0.00 in0.0 mm 0.00 in0.0 mm 0.00 in0.0 mm
04:16 AM 45.0°F7.2°C 42.2°F5.7°C 90% 1.0 mph NE1.6 kmh NE 6.0 mph9.7 kmh 30.36 in1028.1 mb 0.00 in0.0 mm 0.00 in0.0 mm 0.00 in0.0 mm
04:11 AM 45.1°F7.3°C 42.3°F5.7°C 90% 4.0 mph NE6.4 kmh NE 9.0 mph14.5 kmh 30.36 in1028.1 mb 0.00 in0.0 mm 0.00 in0.0 mm 0.00 in0.0 mm
04:06 AM 45.1°F7.3°C 42.3°F5.7°C 90% 1.0 mph NE1.6 kmh NE 9.0 mph14.5 kmh 30.36 in1028.1 mb 0.00 in0.0 mm 0.00 in0.0 mm 0.00 in0.0 mm
04:01 AM 45.2°F7.3°C 42.4°F5.8°C 90% Calm Calm 9.0 mph14.5 kmh 30.36 in1028.1 mb 0.00 in0.0 mm 0.00 in0.0 mm 0.00 in0.0 mm
03:56 AM 45.2°F7.3°C 42.4°F5.8°C 90% 3.0 mph NNE4.8 kmh NNE 9.0 mph14.5 kmh 30.36 in1028.1 mb 0.00 in0.0 mm 0.00 in0.0 mm 0.00 in0.0 mm
03:51 AM 45.2°F7.3°C 42.4°F5.8°C 90% 1.0 mph 1.6 kmh 8.0 mph12.9 kmh 30.36 in1028.1 mb 0.00 in0.0 mm 0.00 in0.0 mm 0.00 in0.0 mm
03:46 AM 45.1°F7.3°C 42.3°F5.7°C 90% 2.0 mph NE3.2 kmh NE 8.0 mph12.9 kmh 30.36 in1028.1 mb 0.00 in0.0 mm 0.00 in0.0 mm 0.00 in0.0 mm
03:41 AM 45.1°F7.3°C 42.6°F5.9°C 91% 3.0 mph NE4.8 kmh NE 8.0 mph12.9 kmh 30.36 in1028.1 mb 0.00 in0.0 mm 0.00 in0.0 mm 0.00 in0.0 mm
03:36 AM 45.0°F7.2°C 42.2°F5.7°C 90% 4.0 mph NNE6.4 kmh NNE 8.0 mph12.9 kmh 30.36 in1028.1 mb 0.00 in0.0 mm 0.00 in0.0 mm 0.00 in0.0 mm
03:31 AM 45.0°F7.2°C 42.2°F5.7°C 90% 3.0 mph NE4.8 kmh NE 7.0 mph11.3 kmh 30.36 in1028.1 mb 0.00 in0.0 mm 0.00 in0.0 mm 0.00 in0.0 mm
03:26 AM 44.9°F7.2°C 42.4°F5.8°C 91% 2.0 mph NE3.2 kmh NE 7.0 mph11.3 kmh 30.36 in1028.1 mb 0.00 in0.0 mm 0.00 in0.0 mm 0.00 in0.0 mm
03:21 AM 44.8°F7.1°C 42.0°F5.6°C 90% 2.0 mph NE3.2 kmh NE 7.0 mph11.3 kmh 30.36 in1028.1 mb 0.00 in0.0 mm 0.00 in0.0 mm 0.00 in0.0 mm
03:16 AM 44.8°F7.1°C 42.3°F5.7°C 91% 3.0 mph NE4.8 kmh NE 7.0 mph11.3 kmh 30.36 in1028.1 mb 0.00 in0.0 mm 0.00 in0.0 mm 0.00 in0.0 mm
03:11 AM 44.7°F7.1°C 41.9°F5.5°C 90% 4.0 mph NE6.4 kmh NE 9.0 mph14.5 kmh 30.36 in1028.1 mb 0.00 in0.0 mm 0.00 in0.0 mm 0.00 in0.0 mm
03:06 AM 44.7°F7.1°C 41.9°F5.5°C 90% 5.0 mph NE8.0 kmh NE 9.0 mph14.5 kmh 30.36 in1028.1 mb 0.00 in0.0 mm 0.00 in0.0 mm 0.00 in0.0 mm
03:01 AM 44.8°F7.1°C 42.0°F5.6°C 90% 3.0 mph NE4.8 kmh NE 9.0 mph14.5 kmh 30.36 in1028.1 mb 0.00 in0.0 mm 0.00 in0.0 mm 0.00 in0.0 mm
02:56 AM 44.9°F7.2°C 42.1°F5.6°C 90% Calm Calm 9.0 mph14.5 kmh 30.36 in1028.1 mb 0.00 in0.0 mm 0.00 in0.0 mm 0.00 in0.0 mm
02:51 AM 44.9°F7.2°C 42.1°F5.6°C 90% 4.0 mph NE6.4 kmh NE 8.0 mph12.9 kmh 30.36 in1028.1 mb 0.00 in0.0 mm 0.00 in0.0 mm 0.00 in0.0 mm
02:46 AM 45.0°F7.2°C 42.2°F5.7°C 90% 4.0 mph NE6.4 kmh NE 8.0 mph12.9 kmh 30.36 in1028.1 mb 0.00 in0.0 mm 0.00 in0.0 mm 0.00 in0.0 mm
02:41 AM 45.1°F7.3°C 42.3°F5.7°C 90% 2.0 mph NE3.2 kmh NE 8.0 mph12.9 kmh 30.36 in1028.1 mb 0.00 in0.0 mm 0.00 in0.0 mm 0.00 in0.0 mm
02:36 AM 45.1°F7.3°C 42.3°F5.7°C 90% 3.0 mph NNE4.8 kmh NNE 8.0 mph12.9 kmh 30.35 in1027.8 mb 0.00 in0.0 mm 0.00 in0.0 mm 0.00 in0.0 mm
02:31 AM 45.1°F7.3°C 42.3°F5.7°C 90% 3.0 mph NE4.8 kmh NE 6.0 mph9.7 kmh 30.36 in1028.1 mb 0.00 in0.0 mm 0.00 in0.0 mm 0.00 in0.0 mm
02:26 AM 45.1°F7.3°C 42.3°F5.7°C 90% 2.0 mph NE3.2 kmh NE 8.0 mph12.9 kmh 30.35 in1027.8 mb 0.00 in0.0 mm 0.00 in0.0 mm 0.00 in0.0 mm
02:21 AM 45.2°F7.3°C 42.4°F5.8°C 90% 2.0 mph NNE3.2 kmh NNE 8.0 mph12.9 kmh 30.35 in1027.8 mb 0.00 in0.0 mm 0.00 in0.0 mm 0.00 in0.0 mm
02:16 AM 45.2°F7.3°C 42.4°F5.8°C 90% 4.0 mph NE6.4 kmh NE 8.0 mph12.9 kmh 30.35 in1027.8 mb 0.00 in0.0 mm 0.00 in0.0 mm 0.00 in0.0 mm
02:11 AM 45.2°F7.3°C 42.4°F5.8°C 90% 1.0 mph ENE1.6 kmh ENE 8.0 mph12.9 kmh 30.35 in1027.8 mb 0.00 in0.0 mm 0.00 in0.0 mm 0.00 in0.0 mm
02:06 AM 45.3°F7.4°C 42.5°F5.8°C 90% 5.0 mph NE8.0 kmh NE 7.0 mph11.3 kmh 30.35 in1027.8 mb 0.00 in0.0 mm 0.00 in0.0 mm 0.00 in0.0 mm
02:01 AM 45.3°F7.4°C 42.5°F5.8°C 90% 2.0 mph NE3.2 kmh NE 7.0 mph11.3 kmh 30.34 in1027.4 mb 0.00 in0.0 mm 0.00 in0.0 mm 0.00 in0.0 mm
01:56 AM 45.3°F7.4°C 42.5°F5.8°C 90% 1.0 mph NE1.6 kmh NE 7.0 mph11.3 kmh 30.35 in1027.8 mb 0.00 in0.0 mm 0.00 in0.0 mm 0.00 in0.0 mm
01:51 AM 45.4°F7.4°C 42.6°F5.9°C 90% 1.0 mph NE1.6 kmh NE 7.0 mph11.3 kmh 30.35 in1027.8 mb 0.00 in0.0 mm 0.00 in0.0 mm 0.00 in0.0 mm
01:46 AM 45.4°F7.4°C 42.6°F5.9°C 90% 1.0 mph NNE1.6 kmh NNE 7.0 mph11.3 kmh 30.35 in1027.8 mb 0.00 in0.0 mm 0.00 in0.0 mm 0.00 in0.0 mm
01:41 AM 45.5°F7.5°C 42.7°F5.9°C 90% 1.0 mph NE1.6 kmh NE 7.0 mph11.3 kmh 30.35 in1027.8 mb 0.00 in0.0 mm 0.00 in0.0 mm 0.00 in0.0 mm
01:36 AM 45.5°F7.5°C 42.7°F5.9°C 90% 4.0 mph NE6.4 kmh NE 7.0 mph11.3 kmh 30.35 in1027.8 mb 0.00 in0.0 mm 0.00 in0.0 mm 0.00 in0.0 mm
01:31 AM 45.6°F7.6°C 42.8°F6.0°C 90% 3.0 mph ENE4.8 kmh ENE 7.0 mph11.3 kmh 30.35 in1027.8 mb 0.00 in0.0 mm 0.00 in0.0 mm 0.00 in0.0 mm
01:26 AM 45.6°F7.6°C 42.8°F6.0°C 90% 3.0 mph NE4.8 kmh NE 6.0 mph9.7 kmh 30.35 in1027.8 mb 0.00 in0.0 mm 0.00 in0.0 mm 0.00 in0.0 mm
01:21 AM 45.6°F7.6°C 42.8°F6.0°C 90% 3.0 mph NE4.8 kmh NE 6.0 mph9.7 kmh 30.35 in1027.8 mb 0.00 in0.0 mm 0.00 in0.0 mm 0.00 in0.0 mm
01:16 AM 45.7°F7.6°C 42.6°F5.9°C 89% 3.0 mph ENE4.8 kmh ENE 7.0 mph11.3 kmh 30.35 in1027.8 mb 0.00 in0.0 mm 0.00 in0.0 mm 0.00 in0.0 mm
01:11 AM 45.8°F7.7°C 42.7°F5.9°C 89% 3.0 mph NE4.8 kmh NE 7.0 mph11.3 kmh 30.35 in1027.8 mb 0.00 in0.0 mm 0.00 in0.0 mm 0.00 in0.0 mm
01:06 AM 45.8°F7.7°C 42.7°F5.9°C 89% 2.0 mph NE3.2 kmh NE 9.0 mph14.5 kmh 30.35 in1027.8 mb 0.00 in0.0 mm 0.00 in0.0 mm 0.00 in0.0 mm
01:01 AM 45.9°F7.7°C 42.8°F6.0°C 89% 1.0 mph ENE1.6 kmh ENE 9.0 mph14.5 kmh 30.35 in1027.8 mb 0.00 in0.0 mm 0.00 in0.0 mm 0.00 in0.0 mm
12:56 AM 45.9°F7.7°C 42.8°F6.0°C 89% 4.0 mph NE6.4 kmh NE 9.0 mph14.5 kmh 30.35 in1027.8 mb 0.00 in0.0 mm 0.00 in0.0 mm 0.00 in0.0 mm
12:51 AM 45.9°F7.7°C 42.8°F6.0°C 89% 3.0 mph NE4.8 kmh NE 9.0 mph14.5 kmh 30.35 in1027.8 mb 0.00 in0.0 mm 0.00 in0.0 mm 0.00 in0.0 mm
12:46 AM 45.9°F7.7°C 42.8°F6.0°C 89% 3.0 mph NE4.8 kmh NE 6.0 mph9.7 kmh 30.35 in1027.8 mb 0.00 in0.0 mm 0.00 in0.0 mm 0.00 in0.0 mm
12:41 AM 45.9°F7.7°C 42.8°F6.0°C 89% 4.0 mph ENE6.4 kmh ENE 6.0 mph9.7 kmh 30.35 in1027.8 mb 0.00 in0.0 mm 0.00 in0.0 mm 0.00 in0.0 mm
12:36 AM 46.0°F7.8°C 42.9°F6.1°C 89% 2.0 mph NE3.2 kmh NE 6.0 mph9.7 kmh 30.35 in1027.8 mb 0.00 in0.0 mm 0.00 in0.0 mm 0.00 in0.0 mm
12:31 AM 46.0°F7.8°C 42.9°F6.1°C 89% Calm Calm 6.0 mph9.7 kmh 30.35 in1027.8 mb 0.00 in0.0 mm 0.00 in0.0 mm 0.00 in0.0 mm
12:26 AM 46.1°F7.8°C 43.0°F6.1°C 89% 2.0 mph NE3.2 kmh NE 6.0 mph9.7 kmh 30.35 in1027.8 mb 0.00 in0.0 mm 0.00 in0.0 mm 0.00 in0.0 mm
12:21 AM 46.2°F7.9°C 43.1°F6.2°C 89% 4.0 mph NE6.4 kmh NE 7.0 mph11.3 kmh 30.35 in1027.8 mb 0.00 in0.0 mm 0.00 in0.0 mm 0.00 in0.0 mm
12:16 AM 46.3°F7.9°C 43.2°F6.2°C 89% Calm Calm 7.0 mph11.3 kmh 30.35 in1027.8 mb 0.00 in0.0 mm 0.00 in0.0 mm 0.00 in0.0 mm
12:11 AM 46.3°F7.9°C 42.9°F6.1°C 88% 3.0 mph NE4.8 kmh NE 7.0 mph11.3 kmh 30.35 in1027.8 mb 0.00 in0.0 mm 0.00 in0.0 mm 0.00 in0.0 mm
12:06 AM 46.3°F7.9°C 42.9°F6.1°C 88% Calm Calm 7.0 mph11.3 kmh 30.35 in1027.8 mb 0.00 in0.0 mm 0.00 in0.0 mm 0.00 in0.0 mm
12:01 AM 46.4°F8.0°C 43.0°F6.1°C 88% 2.0 mph NE3.2 kmh NE 6.0 mph9.7 kmh 30.35 in1027.8 mb 0.00 in0.0 mm 0.00 in0.0 mm 0.00 in0.0 mm